createdAt,value
2019-06-01T00:00:12.365Z,20.83
2019-06-01T00:02:58.448Z,17.70
2019-06-01T00:05:42.547Z,19.97
2019-06-01T00:08:27.335Z,19.87
2019-06-01T00:11:11.236Z,20.47
2019-06-01T00:13:55.227Z,19.30
2019-06-01T00:16:39.930Z,22.00
2019-06-01T00:19:24.579Z,21.23
2019-06-01T00:22:08.731Z,20.13
2019-06-01T00:24:52.964Z,25.37
2019-06-01T00:27:37.248Z,19.87
2019-06-01T00:30:26.931Z,21.17
2019-06-01T00:33:07.005Z,21.73
2019-06-01T00:35:51.621Z,21.77
2019-06-01T00:38:35.801Z,21.13
2019-06-01T00:41:19.903Z,21.87
2019-06-01T00:44:04.459Z,19.47
2019-06-01T00:46:48.712Z,27.40
2019-06-01T00:49:33.355Z,23.27
2019-06-01T00:52:17.689Z,21.50
2019-06-01T00:55:02.411Z,26.10
2019-06-01T00:57:47.344Z,24.02
2019-06-01T01:00:43.147Z,22.50
2019-06-01T01:03:17.651Z,25.00
2019-06-01T01:06:01.244Z,20.83
2019-06-01T01:08:47.087Z,22.53
2019-06-01T01:11:31.818Z,25.37
2019-06-01T01:14:15.763Z,25.50
2019-06-01T01:17:00.225Z,19.77
2019-06-01T01:19:44.161Z,21.65
2019-06-01T01:22:28.396Z,21.87
2019-06-01T01:25:12.314Z,23.03
2019-06-01T01:27:57.044Z,24.53
2019-06-01T01:30:40.799Z,19.43
2019-06-01T01:33:24.671Z,23.77
2019-06-01T01:36:09.134Z,24.57
2019-06-01T01:38:54.234Z,21.83
2019-06-01T01:41:39.503Z,24.05
2019-06-01T01:44:24.779Z,20.50
2019-06-01T01:47:09.668Z,24.10
2019-06-01T01:49:54.105Z,22.50
2019-06-01T01:52:38.650Z,21.33
2019-06-01T01:55:23.123Z,20.23
2019-06-01T01:58:07.807Z,22.13
2019-06-01T02:00:54.059Z,22.20
2019-06-01T02:03:37.925Z,20.63
2019-06-01T02:06:21.608Z,21.17
2019-06-01T02:09:07.233Z,19.23
2019-06-01T02:11:51.379Z,22.90
2019-06-01T02:14:35.201Z,22.40
2019-06-01T02:17:19.928Z,22.43
2019-06-01T02:20:03.886Z,22.87
2019-06-01T02:22:47.774Z,21.87
2019-06-01T02:25:32.373Z,24.83
2019-06-01T02:28:16.724Z,20.13
2019-06-01T02:31:02.063Z,21.30
2019-06-01T02:33:46.835Z,19.03
2019-06-01T02:36:30.836Z,18.90
2019-06-01T02:39:15.550Z,21.30
2019-06-01T02:42:01.061Z,24.57
2019-06-01T02:44:44.963Z,22.62
2019-06-01T02:47:28.614Z,19.53
2019-06-01T02:50:12.185Z,21.30
2019-06-01T02:52:57.272Z,22.23
2019-06-01T02:55:41.463Z,20.73
2019-06-01T02:58:25.891Z,24.80
2019-06-01T03:01:28.696Z,20.73
2019-06-01T03:04:12.419Z,24.27
2019-06-01T03:06:57.272Z,23.53
2019-06-01T03:09:41.231Z,26.40
2019-06-01T03:12:25.027Z,21.23
2019-06-01T03:15:09.521Z,24.63
2019-06-01T03:17:53.312Z,24.23
2019-06-01T03:20:37.087Z,23.13
2019-06-01T03:23:21.079Z,24.47
2019-06-01T03:26:06.199Z,20.57
2019-06-01T03:28:51.720Z,23.97
2019-06-01T03:31:36.116Z,22.95
2019-06-01T03:34:19.686Z,24.57
2019-06-01T03:37:04.953Z,21.00
2019-06-01T03:39:49.386Z,24.85
2019-06-01T03:42:33.942Z,25.37
2019-06-01T03:45:18.286Z,27.23
2019-06-01T03:48:02.599Z,25.87
2019-06-01T03:50:46.878Z,27.90
2019-06-01T03:53:30.690Z,24.30
2019-06-01T03:56:14.965Z,23.87
2019-06-01T03:58:58.861Z,27.93
2019-06-01T04:01:43.563Z,23.38
2019-06-01T04:04:28.105Z,24.57
2019-06-01T04:07:13.268Z,26.63
2019-06-01T04:09:56.885Z,22.70
2019-06-01T04:12:40.911Z,21.35
2019-06-01T04:15:25.789Z,21.47
2019-06-01T04:18:10.347Z,24.47
2019-06-01T04:20:54.626Z,21.93
2019-06-01T04:23:39.029Z,24.10
2019-06-01T04:26:23.628Z,24.80
2019-06-01T04:29:08.266Z,21.97
2019-06-01T04:31:53.239Z,27.65
2019-06-01T04:34:37.582Z,21.60
2019-06-01T04:37:21.101Z,25.13
2019-06-01T04:40:05.330Z,20.23
2019-06-01T04:42:49.581Z,21.23
2019-06-01T04:45:34.890Z,24.87
2019-06-01T04:48:19.325Z,24.25
2019-06-01T04:51:03.056Z,26.17
2019-06-01T04:53:46.106Z,26.23
2019-06-01T04:56:30.603Z,21.93
2019-06-01T04:59:15.372Z,21.37
2019-06-01T05:01:59.846Z,20.20
2019-06-01T05:04:43.895Z,20.48
2019-06-01T05:07:28.463Z,21.47
2019-06-01T05:10:14.246Z,20.27
2019-06-01T05:12:59.053Z,17.57
2019-06-01T05:15:43.544Z,22.63
2019-06-01T05:18:27.142Z,21.67
2019-06-01T05:21:10.765Z,20.70
2019-06-01T05:23:54.526Z,20.00
2019-06-01T05:26:39.014Z,20.33
2019-06-01T05:29:23.324Z,21.13
2019-06-01T05:32:06.984Z,20.60
2019-06-01T05:34:50.907Z,18.10
2019-06-01T05:37:34.864Z,23.10
2019-06-01T05:40:19.758Z,19.00
2019-06-01T05:43:04.117Z,21.43
2019-06-01T05:45:48.359Z,21.30
2019-06-01T05:48:32.718Z,17.80
2019-06-01T05:51:18.571Z,18.40
2019-06-01T05:54:02.988Z,20.20
2019-06-01T05:56:47.326Z,18.73
2019-06-01T05:59:31.852Z,20.93
2019-06-01T06:02:16.052Z,19.73
2019-06-01T06:05:00.271Z,20.33
2019-06-01T06:07:43.868Z,20.63
2019-06-01T06:10:28.158Z,19.45
2019-06-01T06:13:11.688Z,18.63
2019-06-01T06:15:56.043Z,18.27
2019-06-01T06:18:40.102Z,17.70
2019-06-01T06:21:24.541Z,19.33
2019-06-01T06:24:08.703Z,17.52
2019-06-01T06:26:52.747Z,18.47
2019-06-01T06:29:37.753Z,18.80
2019-06-01T06:32:23.352Z,19.07
2019-06-01T06:35:07.964Z,18.90
2019-06-01T06:37:52.925Z,16.20
2019-06-01T06:40:37.324Z,15.70
2019-06-01T06:43:29.711Z,16.23
2019-06-01T06:46:06.741Z,19.23
2019-06-01T06:48:51.355Z,17.75
2019-06-01T06:51:35.211Z,16.87
2019-06-01T06:54:19.865Z,18.40
2019-06-01T06:57:04.721Z,17.13
2019-06-01T06:59:49.052Z,16.73
2019-06-01T07:02:32.778Z,15.87
2019-06-01T07:05:17.232Z,16.03
2019-06-01T07:08:01.195Z,14.50
2019-06-01T07:10:45.228Z,13.87
2019-06-01T07:13:28.990Z,13.00
2019-06-01T07:16:13.573Z,16.87
2019-06-01T07:18:57.354Z,15.70
2019-06-01T07:21:41.388Z,18.32
2019-06-01T07:24:26.038Z,15.83
2019-06-01T07:27:11.258Z,16.10
2019-06-01T07:29:55.505Z,15.28
2019-06-01T07:32:39.662Z,13.30
2019-06-01T07:35:24.974Z,13.32
2019-06-01T07:38:09.071Z,16.47
2019-06-01T07:40:52.940Z,12.77
2019-06-01T07:43:36.545Z,15.47
2019-06-01T07:46:20.841Z,12.87
2019-06-01T07:49:06.373Z,12.63
2019-06-01T07:51:50.756Z,12.10
2019-06-01T07:54:34.462Z,11.55
2019-06-01T07:57:18.583Z,12.53
2019-06-01T08:00:03.913Z,12.03
2019-06-01T08:02:50.277Z,11.10
2019-06-01T08:05:34.569Z,11.28
2019-06-01T08:08:18.048Z,10.90
2019-06-01T08:10:50.654Z,9.23
2019-06-01T08:13:35.835Z,9.43
2019-06-01T08:16:21.434Z,6.17
2019-06-01T08:19:05.343Z,6.65
2019-06-01T08:21:49.759Z,6.00
2019-06-01T08:24:33.534Z,6.60
2019-06-01T08:27:17.618Z,7.83
2019-06-01T08:30:01.871Z,7.07
2019-06-01T08:32:46.049Z,8.20
2019-06-01T08:35:31.242Z,5.90
2019-06-01T08:38:15.327Z,6.63
2019-06-01T08:40:59.830Z,6.87
2019-06-01T08:43:43.479Z,7.35
2019-06-01T08:46:27.709Z,6.87
2019-06-01T08:49:12.941Z,7.17
2019-06-01T08:51:56.749Z,7.08
2019-06-01T08:54:40.573Z,9.87
2019-06-01T08:57:24.363Z,6.77
2019-06-01T08:59:56.663Z,9.30
2019-06-01T09:02:40.298Z,6.50
2019-06-01T09:05:26.205Z,6.85
2019-06-01T09:08:09.505Z,7.53
2019-06-01T09:10:53.935Z,7.13
2019-06-01T09:13:37.473Z,6.23
2019-06-01T09:16:25.374Z,8.17
2019-06-01T09:19:11.324Z,7.33
2019-06-01T09:21:54.573Z,7.13
2019-06-01T09:24:38.497Z,6.93
2019-06-01T09:27:22.399Z,6.85
2019-06-01T09:30:06.888Z,6.37
2019-06-01T09:32:51.194Z,6.03
2019-06-01T09:35:53.687Z,7.00
2019-06-01T09:38:20.839Z,7.13
2019-06-01T09:41:04.650Z,6.65
2019-06-01T09:43:48.639Z,7.73
2019-06-01T09:46:34.005Z,5.40
2019-06-01T09:49:18.853Z,8.80
2019-06-01T09:52:03.124Z,5.60
2019-06-01T09:54:46.877Z,6.80
2019-06-01T09:57:31.991Z,8.97
2019-06-01T10:00:15.784Z,6.60
2019-06-01T10:02:59.986Z,5.93
2019-06-01T10:05:58.431Z,7.13
2019-06-01T10:08:32.410Z,5.70
2019-06-01T10:11:16.037Z,5.75
2019-06-01T10:13:59.790Z,5.55
2019-06-01T10:16:43.445Z,7.67
2019-06-01T10:19:27.692Z,6.57
2019-06-01T10:22:12.449Z,7.43
2019-06-01T10:24:56.298Z,5.43
2019-06-01T10:27:40.584Z,5.73
2019-06-01T10:30:24.110Z,6.30
2019-06-01T10:33:07.827Z,5.53
2019-06-01T10:35:51.629Z,5.77
2019-06-01T10:38:35.477Z,6.10
2019-06-01T10:41:19.984Z,7.23
2019-06-01T10:44:04.294Z,5.27
2019-06-01T10:46:48.004Z,5.55
2019-06-01T10:49:31.851Z,6.53
2019-06-01T10:52:15.655Z,7.47
2019-06-01T10:54:59.988Z,7.43
2019-06-01T10:57:44.173Z,5.03
2019-06-01T11:00:39.694Z,6.23
2019-06-01T11:03:14.552Z,4.12
2019-06-01T11:05:59.897Z,6.07
2019-06-01T11:08:43.622Z,5.20
2019-06-01T11:11:29.745Z,7.25
2019-06-01T11:14:14.058Z,5.22
2019-06-01T11:16:58.414Z,5.83
2019-06-01T11:19:43.694Z,6.90
2019-06-01T11:22:28.134Z,6.13
2019-06-01T11:25:11.795Z,5.58
2019-06-01T11:27:56.019Z,5.37
2019-06-01T11:30:40.217Z,5.17
2019-06-01T11:33:23.827Z,5.37
2019-06-01T11:36:08.438Z,5.25
2019-06-01T11:38:53.155Z,6.37
2019-06-01T11:41:25.885Z,4.40
2019-06-01T11:44:10.271Z,5.83
2019-06-01T11:46:53.983Z,5.70
2019-06-01T11:49:38.676Z,4.95
2019-06-01T11:52:23.140Z,5.10
2019-06-01T11:55:07.518Z,4.33
2019-06-01T11:57:51.307Z,7.87
2019-06-01T12:00:35.780Z,7.77
2019-06-01T12:03:19.996Z,7.53
2019-06-01T12:06:03.612Z,5.13
2019-06-01T12:08:47.285Z,3.70
2019-06-01T12:11:31.456Z,5.43
2019-06-01T12:14:15.930Z,6.15
2019-06-01T12:16:59.131Z,6.78
2019-06-01T12:19:44.769Z,5.53
2019-06-01T12:22:30.529Z,4.35
2019-06-01T12:25:14.464Z,6.03
2019-06-01T12:27:58.943Z,6.40
2019-06-01T12:30:43.739Z,7.43
2019-06-01T12:33:27.850Z,4.90
2019-06-01T12:36:00.133Z,5.27
2019-06-01T12:38:52.178Z,5.57
2019-06-01T12:41:36.718Z,7.62
2019-06-01T12:44:20.419Z,8.80
2019-06-01T12:47:04.657Z,6.33
2019-06-01T12:49:48.940Z,5.90
2019-06-01T12:52:22.577Z,5.20
2019-06-01T12:55:06.788Z,5.20
2019-06-01T12:57:51.346Z,6.40
2019-06-01T13:00:35.536Z,7.60
2019-06-01T13:03:19.515Z,7.43
2019-06-01T13:06:04.008Z,6.63
2019-06-01T13:08:48.870Z,9.60
2019-06-01T13:11:22.618Z,6.10
2019-06-01T13:14:07.071Z,5.58
2019-06-01T13:17:05.954Z,6.17
2019-06-01T13:19:36.216Z,4.57
2019-06-01T13:22:20.070Z,4.70
2019-06-01T13:25:04.625Z,6.27
2019-06-01T13:27:49.052Z,9.75
2019-06-01T13:30:34.589Z,6.83
2019-06-01T13:33:18.834Z,7.08
2019-06-01T13:36:04.220Z,10.50
2019-06-01T13:38:48.798Z,6.17
2019-06-01T13:41:32.221Z,7.15
2019-06-01T13:44:16.160Z,5.55
2019-06-01T13:47:00.166Z,5.67
2019-06-01T13:49:46.852Z,8.90
2019-06-01T13:52:32.292Z,11.47
2019-06-01T13:55:16.627Z,12.03
2019-06-01T13:58:01.023Z,12.50
2019-06-01T14:00:46.215Z,12.17
2019-06-01T14:03:29.957Z,12.70
2019-06-01T14:06:13.580Z,11.65
2019-06-01T14:08:57.659Z,17.10
2019-06-01T14:11:41.736Z,12.00
2019-06-01T14:14:26.501Z,12.60
2019-06-01T14:17:10.804Z,18.30
2019-06-01T14:19:55.885Z,11.13
2019-06-01T14:22:40.306Z,11.57
2019-06-01T14:25:24.455Z,10.47
2019-06-01T14:28:08.668Z,14.47
2019-06-01T14:30:54.282Z,15.63
2019-06-01T14:33:38.781Z,9.37
2019-06-01T14:36:23.114Z,12.60
2019-06-01T14:39:08.342Z,15.80
2019-06-01T14:41:53.490Z,13.58
2019-06-01T14:44:37.315Z,15.50
2019-06-01T14:47:21.196Z,19.37
2019-06-01T14:50:05.252Z,14.03
2019-06-01T14:52:49.947Z,16.60
2019-06-01T14:55:34.352Z,14.33
2019-06-01T14:58:18.461Z,12.90
2019-06-01T15:01:02.557Z,13.32
2019-06-01T15:03:48.134Z,11.27
2019-06-01T15:06:33.020Z,8.83
2019-06-01T15:09:19.463Z,9.85
2019-06-01T15:12:02.072Z,12.13
2019-06-01T15:14:48.446Z,10.30
2019-06-01T15:17:32.912Z,9.93
2019-06-01T15:20:17.529Z,8.50
2019-06-01T15:23:03.600Z,11.73
2019-06-01T15:25:47.430Z,12.73
2019-06-01T15:28:31.524Z,11.50
2019-06-01T15:31:15.556Z,12.10
2019-06-01T15:33:59.821Z,11.37
2019-06-01T15:36:44.463Z,12.50
2019-06-01T15:39:28.683Z,12.73
2019-06-01T15:42:12.410Z,11.30
2019-06-01T15:44:57.245Z,12.63
2019-06-01T15:47:41.692Z,8.03
2019-06-01T15:50:25.909Z,9.37
2019-06-01T15:52:59.331Z,10.05
2019-06-01T15:55:43.695Z,11.97
2019-06-01T15:58:27.581Z,7.23
2019-06-01T16:01:12.125Z,8.60
2019-06-01T16:03:57.329Z,10.40
2019-06-01T16:06:41.131Z,8.87
2019-06-01T16:09:41.581Z,8.67
2019-06-01T16:12:10.834Z,8.03
2019-06-01T16:14:55.562Z,9.07
2019-06-01T16:17:39.914Z,10.97
2019-06-01T16:20:23.609Z,9.20
2019-06-01T16:23:07.663Z,9.23
2019-06-01T16:26:04.874Z,10.73
2019-06-01T16:28:37.822Z,8.60
2019-06-01T16:31:22.146Z,8.57
2019-06-01T16:33:56.474Z,10.60
2019-06-01T16:36:40.630Z,7.30
2019-06-01T16:39:25.015Z,7.00
2019-06-01T16:42:08.738Z,6.73
2019-06-01T16:44:52.921Z,9.95
2019-06-01T16:47:37.230Z,6.77
2019-06-01T16:50:20.849Z,8.93
2019-06-01T16:52:53.768Z,9.07
2019-06-01T16:55:37.675Z,6.07
2019-06-01T16:58:12.194Z,9.43
2019-06-01T17:00:56.399Z,4.93
2019-06-01T17:03:40.516Z,7.13
2019-06-01T17:06:24.960Z,8.07
2019-06-01T17:09:09.082Z,5.05
2019-06-01T17:11:53.245Z,5.33
2019-06-01T17:15:07.146Z,5.30
2019-06-01T17:18:05.059Z,5.40
2019-06-01T17:20:47.540Z,7.80
2019-06-01T17:23:33.155Z,7.10
2019-06-01T17:26:17.183Z,5.50
2019-06-01T17:29:02.108Z,5.80
2019-06-01T17:31:54.353Z,6.63
2019-06-01T17:34:31.805Z,5.93
2019-06-01T17:37:16.217Z,7.10
2019-06-01T17:40:00.058Z,7.53
2019-06-01T17:42:43.867Z,6.03
2019-06-01T17:45:28.286Z,6.03
2019-06-01T17:48:25.064Z,4.78
2019-06-01T17:50:58.240Z,5.47
2019-06-01T17:53:42.690Z,5.22
2019-06-01T17:56:26.981Z,3.73
2019-06-01T17:59:11.569Z,3.60
2019-06-01T18:01:56.158Z,5.17
2019-06-01T18:04:40.845Z,7.50
2019-06-01T18:07:24.441Z,5.37
2019-06-01T18:10:10.179Z,4.80
2019-06-01T18:12:54.160Z,4.03
2019-06-01T18:15:38.883Z,3.46
2019-06-01T18:18:22.684Z,3.87
2019-06-01T18:21:06.775Z,3.73
2019-06-01T18:23:51.374Z,4.40
2019-06-01T18:26:35.949Z,2.47
2019-06-01T18:29:20.394Z,5.20
2019-06-01T18:32:05.761Z,4.37
2019-06-01T18:34:49.654Z,3.10
2019-06-01T18:37:33.696Z,5.50
2019-06-01T18:40:18.677Z,3.83
2019-06-01T18:43:05.919Z,4.43
2019-06-01T18:45:49.975Z,6.50
2019-06-01T18:48:34.439Z,6.53
2019-06-01T18:51:18.878Z,5.63
2019-06-01T18:54:04.234Z,5.07
2019-06-01T18:56:48.414Z,3.72
2019-06-01T18:59:32.933Z,4.73
2019-06-01T19:02:17.702Z,4.00
2019-06-01T19:05:02.105Z,3.17
2019-06-01T19:07:46.555Z,5.10
2019-06-01T19:10:30.687Z,5.73
2019-06-01T19:13:14.371Z,3.63
2019-06-01T19:15:58.699Z,2.63
2019-06-01T19:18:43.212Z,4.03
2019-06-01T19:21:27.278Z,3.23
2019-06-01T19:24:12.708Z,7.00
2019-06-01T19:26:57.149Z,7.27
2019-06-01T19:29:29.893Z,5.17
2019-06-01T19:32:15.024Z,5.93
2019-06-01T19:34:59.961Z,3.37
2019-06-01T19:37:43.630Z,3.37
2019-06-01T19:40:32.100Z,4.47
2019-06-01T19:43:16.063Z,5.33
2019-06-01T19:45:59.635Z,5.17
2019-06-01T19:48:43.512Z,4.77
2019-06-01T19:51:27.373Z,5.12
2019-06-01T19:54:11.074Z,4.50
2019-06-01T19:56:55.428Z,5.03
2019-06-01T19:59:39.949Z,3.83
2019-06-01T20:02:33.294Z,5.27
2019-06-01T20:04:58.815Z,4.43
2019-06-01T20:07:31.716Z,4.28
2019-06-01T20:10:23.477Z,3.50
2019-06-01T20:12:55.885Z,3.70
2019-06-01T20:15:28.301Z,3.60
2019-06-01T20:18:01.421Z,3.20
2019-06-01T20:20:33.757Z,3.03
2019-06-01T20:23:06.126Z,4.22
2019-06-01T20:25:38.514Z,4.50
2019-06-01T20:28:11.631Z,2.93
2019-06-01T20:30:44.106Z,6.40
2019-06-01T20:33:16.436Z,3.10
2019-06-01T20:35:48.711Z,4.20
2019-06-01T20:38:23.034Z,3.40
2019-06-01T20:40:55.121Z,4.57
2019-06-01T20:43:27.405Z,4.33
2019-06-01T20:46:00.102Z,5.07
2019-06-01T20:48:32.451Z,5.13
2019-06-01T20:51:04.739Z,6.43
2019-06-01T20:53:37.059Z,5.90
2019-06-01T20:56:09.354Z,3.57
2019-06-01T20:58:41.716Z,4.67
2019-06-01T21:01:14.084Z,4.57
2019-06-01T21:03:46.384Z,3.87
2019-06-01T21:06:20.416Z,5.80
2019-06-01T21:08:52.701Z,4.03
2019-06-01T21:11:25.043Z,5.87
2019-06-01T21:13:57.427Z,5.63
2019-06-01T21:16:30.100Z,4.33
2019-06-01T21:19:02.749Z,4.12
2019-06-01T21:21:35.074Z,4.30
2019-06-01T21:24:07.343Z,4.37
2019-06-01T21:26:39.703Z,6.10
2019-06-01T21:29:12.062Z,5.80
2019-06-01T21:31:45.039Z,4.83
2019-06-01T21:34:17.653Z,4.73
2019-06-01T21:36:49.917Z,4.20
2019-06-01T21:39:23.481Z,5.40
2019-06-01T21:41:56.235Z,5.57
2019-06-01T21:44:29.526Z,3.87
2019-06-01T21:47:02.983Z,4.73
2019-06-01T21:49:35.359Z,4.90
2019-06-01T21:52:07.648Z,6.22
2019-06-01T21:54:40.086Z,3.93
2019-06-01T21:57:12.365Z,4.77
2019-06-01T21:59:44.685Z,4.83
2019-06-01T22:02:17.104Z,4.30
2019-06-01T22:04:49.402Z,5.43
2019-06-01T22:07:23.003Z,4.23
2019-06-01T22:09:55.597Z,4.60
2019-06-01T22:12:27.949Z,5.70
2019-06-01T22:15:00.205Z,4.30
2019-06-01T22:17:33.339Z,6.03
2019-06-01T22:20:06.626Z,3.90
2019-06-01T22:22:38.994Z,4.63
2019-06-01T22:25:12.920Z,4.67
2019-06-01T22:27:45.234Z,4.03
2019-06-01T22:30:18.412Z,6.43
2019-06-01T22:32:50.748Z,5.12
2019-06-01T22:35:23.027Z,5.57
2019-06-01T22:37:55.438Z,5.83
2019-06-01T22:40:29.373Z,6.67
2019-06-01T22:43:01.749Z,6.53
2019-06-01T22:45:34.843Z,7.08
2019-06-01T22:48:07.128Z,4.53
2019-06-01T22:50:39.516Z,4.53
2019-06-01T22:53:11.811Z,5.17
2019-06-01T22:55:44.154Z,6.33
2019-06-01T22:58:17.434Z,6.23
2019-06-01T23:00:50.187Z,8.67
2019-06-01T23:03:23.526Z,5.30
2019-06-01T23:05:56.332Z,4.20
2019-06-01T23:08:29.496Z,4.03
2019-06-01T23:11:02.419Z,5.60
2019-06-01T23:13:34.988Z,4.00
2019-06-01T23:16:07.288Z,4.20
2019-06-01T23:18:39.641Z,5.22
2019-06-01T23:21:11.993Z,4.28
2019-06-01T23:23:44.332Z,4.87
2019-06-01T23:26:16.668Z,6.67
2019-06-01T23:28:48.959Z,5.60
2019-06-01T23:31:22.238Z,4.08
2019-06-01T23:33:54.710Z,4.60
2019-06-01T23:36:27.074Z,5.17
2019-06-01T23:38:59.636Z,6.33
2019-06-01T23:41:32.934Z,5.17
2019-06-01T23:44:11.648Z,5.57
2019-06-01T23:46:40.541Z,5.25
2019-06-01T23:49:12.871Z,5.10
2019-06-01T23:51:45.458Z,5.10
2019-06-01T23:54:17.739Z,6.53
2019-06-01T23:56:50.879Z,5.23
2019-06-01T23:59:24.057Z,6.47
